MAR weather

La Chinita International Airport
Maracaibo, Zulia, Venezuela

Public forecast

Using degrees Celsius for public forecast. Weather courtesy of forecast.io.

Current aviation weather report (METAR) for La Chinita International Airport

Retrieved 2020/08/06 18:02 UTC (52 minutes ago):

SVMC 061802Z AUTO 15002KT NCD 31/23 Q1011

Aviation forecast (TAF) for La Chinita International Airport

Forecast is more than 6 hours old.

Retrieved 2020/08/06 12:03 UTC (7 hours ago):

TAF SVMC 061600Z 0612/0712 11002KT 9999 SCT100 TX35/0619Z TN25/0509Z BECMG 0612/0616 14005KT 9000 -DZ BKN100